MST,Max TemperatureF,Mean TemperatureF,Min TemperatureF,Max Dew PointF,MeanDew PointF,Min DewpointF,Max Humidity, Mean Humidity, Min Humidity, Max Sea Level PressureIn, Mean Sea Level PressureIn, Min Sea Level PressureIn, Max VisibilityMiles, Mean VisibilityMiles, Min VisibilityMiles, Max Wind SpeedMPH, Mean Wind SpeedMPH, Max Gust SpeedMPH,PrecipitationIn, CloudCover, Events, WindDirDegrees
2012-12-1,35,32,30,30,25,14,93,74,44,30.06,30.02,29.96,10,9,0,21,14,30,0.00,5,Snow,252
2012-12-2,39,36,32,27,15,9,75,46,33,30.03,29.91,29.81,10,10,3,23,15,34,0.00,1,Snow,209
2012-12-3,33,27,21,30,16,1,93,72,42,30.15,29.99,29.80,10,8,0,26,14,39,0.00,5,Snow,264
2012-12-4,32,26,21,19,4,-17,68,39,13,30.26,30.22,30.14,10,10,10,20,12,24,0.00,2,,226
2012-12-5,37,34,30,27,22,16,86,63,45,30.20,30.06,29.97,10,10,7,24,16,34,0.00,7,,249
2012-12-6,30,29,28,27,27,27,93,90,86,29.98,29.88,29.79,10,1,0,24,11,30,0.00,8,Fog-Snow,267
2012-12-7,,,,,,,,,,29.79,29.76,29.72,4,0,0,26,17,37,0.00,8,Fog,266
2012-12-8,,,,,,,,,,29.72,29.58,29.47,10,4,0,36,19,53,0.00,8,,262
2012-12-9,,,,,,,,,,29.79,29.70,29.61,,,,14,8,20,0.00,8,,273
2012-12-10,,,,,,,,,,,,,,,,,,,,,,
2012-12-11,,,,,,,,,,,,,,,,,,,,,,
2012-12-12,,,,,,,,,,,,,,,,,,,,,,
2012-12-13,32,31,30,10,8,5,41,39,34,29.87,29.83,29.81,10,10,10,20,15,29,0.00,0,,164
2012-12-14,32,29,26,23,10,0,86,48,25,29.80,29.57,29.41,10,6,0,30,13,34,0.00,6,Snow,153
2012-12-15,,,,,,,,,,29.61,29.57,29.52,0,0,0,21,14,28,0.00,8,,258
2012-12-16,,,,,,,,,,29.63,29.55,29.49,0,0,0,29,18,40,0.00,8,,261
2012-12-17,,,,,,,,,,29.62,29.53,29.44,,,,32,20,46,0.00,8,,261
2012-12-18,,,,,,,,,,29.55,29.46,29.32,,,,29,13,41,0.00,8,,137
2012-12-19,8,6,5,1,0,0,79,74,67,29.90,29.55,29.27,,,,21,8,29,0.00,8,,316
2012-12-20,23,13,3,-4,-12,-24,61,29,20,30.13,30.06,29.92,10,10,10,21,15,24,0.00,0,,239
2012-12-21,32,26,21,-2,-11,-22,33,18,10,30.13,30.06,30.00,10,10,10,22,15,28,0.00,0,,202
2012-12-22,32,29,26,-15,-30,-45,14,7,4,30.03,29.95,29.85,10,10,10,20,14,24,0.00,1,,207
2012-12-23,28,22,17,16,3,-38,86,52,4,29.88,29.83,29.76,10,6,0,22,13,31,0.00,7,Fog-Snow,231
2012-12-24,23,21,19,18,15,10,86,74,59,29.75,29.57,29.46,10,2,0,18,11,26,0.00,8,Snow,226
2012-12-25,,,,,,,,,,29.79,29.71,29.54,10,4,0,16,10,18,0.00,6,Fog,233
2012-12-26,21,16,12,18,7,-6,86,65,38,29.70,29.49,29.35,10,5,0,24,11,32,0.00,7,Snow,210
2012-12-27,,,,,,,,,,29.57,29.41,29.34,4,0,0,21,14,29,0.00,8,,278
2012-12-28,,,,,,,,,,29.87,29.72,29.57,2,1,0,21,11,32,0.00,8,Fog,279
2012-12-29,24,18,12,7,-15,-31,73,25,8,29.92,29.84,29.76,10,10,10,17,11,20,0.00,2,,201
2012-12-30,23,18,14,14,2,-17,86,51,23,29.75,29.70,29.62,10,9,1,21,11,26,0.00,3,Snow,176
2012-12-31,21,13,5,14,4,-4,80,72,62,29.69,29.61,29.55,10,3,0,13,7,,0.00,7,Snow,328